createdAt,value
2018-07-24T00:01:43.360Z,100053.36
2018-07-24T00:04:15.799Z,100054.48
2018-07-24T00:06:52.936Z,100056.94
2018-07-24T00:09:26.765Z,100050.98
2018-07-24T00:12:00.126Z,100051.80
2018-07-24T00:14:32.879Z,100056.72
2018-07-24T00:17:05.529Z,100051.19
2018-07-24T00:19:38.086Z,100054.38
2018-07-24T00:22:11.590Z,100057.95
2018-07-24T00:24:44.081Z,100051.42
2018-07-24T00:27:17.445Z,100057.97
2018-07-24T00:29:51.262Z,100050.35
2018-07-24T00:32:23.786Z,100055.72
2018-07-24T00:34:56.219Z,100052.50
2018-07-24T00:37:31.033Z,100051.45
2018-07-24T00:40:04.113Z,100048.05
2018-07-24T00:42:36.792Z,100044.77
2018-07-24T00:45:09.502Z,100041.80
2018-07-24T00:47:45.677Z,100044.17
2018-07-24T00:50:19.253Z,100044.70
2018-07-24T00:52:52.253Z,100043.04
2018-07-24T00:55:26.191Z,100039.35
2018-07-24T00:57:59.350Z,100037.37
2018-07-24T01:00:33.323Z,100036.08
2018-07-24T01:03:06.371Z,100032.98
2018-07-24T01:05:39.016Z,100034.92
2018-07-24T01:08:13.028Z,100031.95
2018-07-24T01:10:45.583Z,100024.72
2018-07-24T01:13:20.106Z,100028.37
2018-07-24T01:15:54.574Z,100022.60
2018-07-24T01:18:27.466Z,100022.27
2018-07-24T01:21:00.706Z,100026.13
2018-07-24T01:23:35.018Z,100028.70
2018-07-24T01:26:07.884Z,100028.91
2018-07-24T01:28:40.942Z,100024.11
2018-07-24T01:31:16.936Z,100023.24
2018-07-24T01:33:54.476Z,100023.77
2018-07-24T01:36:26.874Z,100024.31
2018-07-24T01:39:01.382Z,100024.55
2018-07-24T01:41:34.854Z,100023.48
2018-07-24T01:44:08.157Z,100023.25
2018-07-24T01:46:43.229Z,100021.98
2018-07-24T01:49:15.866Z,100022.95
2018-07-24T01:51:48.455Z,100021.39
2018-07-24T01:54:23.273Z,100021.20
2018-07-24T01:56:56.001Z,100016.41
2018-07-24T01:59:28.632Z,100017.34
2018-07-24T02:02:01.594Z,100020.76
2018-07-24T02:04:34.468Z,100016.30
2018-07-24T02:07:07.013Z,100015.02
2018-07-24T02:09:40.270Z,100017.06
2018-07-24T02:12:13.560Z,100014.94
2018-07-24T02:14:46.135Z,100013.53
2018-07-24T02:17:19.114Z,100009.78
2018-07-24T02:19:51.675Z,100009.59
2018-07-24T02:22:24.188Z,100012.57
2018-07-24T02:24:57.117Z,100010.44
2018-07-24T02:27:29.849Z,100007.61
2018-07-24T02:30:04.716Z,100010.50
2018-07-24T02:32:38.904Z,100009.25
2018-07-24T02:35:11.388Z,100012.55
2018-07-24T02:37:44.341Z,100009.66
2018-07-24T02:40:17.187Z,100011.43
2018-07-24T02:42:50.685Z,100009.50
2018-07-24T02:45:23.913Z,100011.29
2018-07-24T02:47:56.824Z,100011.38
2018-07-24T02:50:29.373Z,100011.31
2018-07-24T02:53:03.774Z,100007.97
2018-07-24T02:55:36.621Z,100013.56
2018-07-24T02:58:09.221Z,100007.75
2018-07-24T03:00:41.687Z,100008.77
2018-07-24T03:03:14.473Z,100006.70
2018-07-24T03:05:46.884Z,100005.98
2018-07-24T03:08:19.767Z,100009.72
2018-07-24T03:10:52.869Z,100008.84
2018-07-24T03:13:24.652Z,100002.20
2018-07-24T03:15:57.464Z,100004.83
2018-07-24T03:18:30.557Z,100005.91
2018-07-24T03:21:03.202Z,100010.72
2018-07-24T03:23:36.836Z,100009.66
2018-07-24T03:26:10.493Z,100006.84
2018-07-24T03:28:43.797Z,100007.80
2018-07-24T03:31:16.413Z,100003.86
2018-07-24T03:33:50.180Z,100000.78
2018-07-24T03:36:22.737Z,100004.44
2018-07-24T03:38:55.328Z,100006.38
2018-07-24T03:41:29.017Z,100007.72
2018-07-24T03:44:02.495Z,100006.30
2018-07-24T03:46:37.754Z,100009.40
2018-07-24T03:49:10.584Z,100010.77
2018-07-24T03:51:43.115Z,100014.83
2018-07-24T03:54:15.704Z,100015.14
2018-07-24T03:56:53.781Z,100014.91
2018-07-24T03:59:27.989Z,100013.65
2018-07-24T04:02:02.129Z,100014.91
2018-07-24T04:04:34.621Z,100013.97
2018-07-24T04:07:07.188Z,100015.14
2018-07-24T04:09:40.145Z,100015.55
2018-07-24T04:12:12.749Z,100017.53
2018-07-24T04:14:45.297Z,100018.77
2018-07-24T04:17:18.135Z,100015.52
2018-07-24T04:19:50.950Z,100012.78
2018-07-24T04:22:23.681Z,100012.98
2018-07-24T04:24:56.468Z,100013.55
2018-07-24T04:27:29.037Z,100010.05
2018-07-24T04:30:05.440Z,100012.58
2018-07-24T04:32:38.330Z,100012.81
2018-07-24T04:35:10.894Z,100017.87
2018-07-24T04:37:44.367Z,100010.19
2018-07-24T04:40:18.280Z,100007.42
2018-07-24T04:42:51.161Z,100004.48
2018-07-24T04:45:23.740Z,100006.50
2018-07-24T04:47:56.553Z,100002.18
2018-07-24T04:50:30.525Z,100005.61
2018-07-24T04:53:03.238Z,100006.61
2018-07-24T04:55:37.042Z,100010.31
2018-07-24T04:58:09.996Z,100007.87
2018-07-24T05:00:42.612Z,100007.02
2018-07-24T05:03:15.659Z,100005.65
2018-07-24T05:05:48.164Z,100001.56
2018-07-24T05:08:21.232Z,100005.97
2018-07-24T05:10:53.806Z,100006.09
2018-07-24T05:13:27.950Z,100003.97
2018-07-24T05:16:00.601Z,99999.77
2018-07-24T05:18:33.924Z,100002.48
2018-07-24T05:21:06.465Z,100001.53
2018-07-24T05:23:39.160Z,100002.80
2018-07-24T05:26:11.939Z,100004.08
2018-07-24T05:28:45.863Z,100004.86
2018-07-24T05:31:18.645Z,100005.61
2018-07-24T05:33:51.899Z,100001.71
2018-07-24T05:36:25.843Z,100003.83
2018-07-24T05:38:59.100Z,100004.62
2018-07-24T05:41:31.672Z,100002.92
2018-07-24T05:44:08.732Z,100003.26
2018-07-24T05:46:41.580Z,100003.17
2018-07-24T05:49:15.077Z,99996.95
2018-07-24T05:51:48.003Z,99997.62
2018-07-24T05:54:23.797Z,99996.66
2018-07-24T05:56:56.568Z,99998.67
2018-07-24T05:59:30.680Z,99996.41
2018-07-24T06:02:06.452Z,100000.97
2018-07-24T06:04:38.877Z,100001.13
2018-07-24T06:07:13.123Z,100005.69
2018-07-24T06:09:45.620Z,100002.96
2018-07-24T06:12:21.681Z,100000.92
2018-07-24T06:14:54.860Z,100006.58
2018-07-24T06:17:29.784Z,100005.48
2018-07-24T06:20:08.116Z,100008.03
2018-07-24T06:22:40.709Z,100005.33
2018-07-24T06:25:13.563Z,99997.07
2018-07-24T06:27:47.252Z,99998.36
2018-07-24T06:30:19.745Z,100001.48
2018-07-24T06:32:52.636Z,99996.36
2018-07-24T06:35:25.408Z,99993.44
2018-07-24T06:37:58.094Z,99994.96
2018-07-24T06:40:31.828Z,99996.80
2018-07-24T06:43:22.914Z,99991.08
2018-07-24T06:46:00.149Z,99995.47
2018-07-24T06:48:34.307Z,99992.41
2018-07-24T06:51:07.833Z,99995.13
2018-07-24T06:53:40.747Z,99991.89
2018-07-24T06:56:14.226Z,99993.14
2018-07-24T06:58:46.763Z,99990.54
2018-07-24T07:01:20.129Z,99990.58
2018-07-24T07:03:53.544Z,99986.58
2018-07-24T07:06:27.293Z,99987.14
2018-07-24T07:09:05.724Z,99984.98
2018-07-24T07:11:42.300Z,99985.15
2018-07-24T07:14:15.872Z,99989.03
2018-07-24T07:16:49.817Z,99990.06
2018-07-24T07:19:26.944Z,99984.30
2018-07-24T07:22:00.309Z,99986.97
2018-07-24T07:24:34.512Z,99984.61
2018-07-24T07:27:08.942Z,99984.19
2018-07-24T07:29:42.964Z,99982.34
2018-07-24T07:32:16.622Z,99978.42
2018-07-24T07:34:49.000Z,99980.80
2018-07-24T07:37:21.618Z,99971.66
2018-07-24T07:39:54.479Z,99967.03
2018-07-24T07:42:31.332Z,99967.72
2018-07-24T07:45:07.593Z,99966.27
2018-07-24T07:47:40.042Z,99961.50
2018-07-24T07:50:13.226Z,99957.98
2018-07-24T07:52:50.235Z,99966.66
2018-07-24T07:55:24.530Z,99965.16
2018-07-24T07:57:57.948Z,99959.45
2018-07-24T08:00:31.372Z,99962.09
2018-07-24T08:03:04.699Z,99954.02
2018-07-24T08:05:39.837Z,99955.85
2018-07-24T08:08:12.787Z,99952.61
2018-07-24T08:10:49.011Z,99950.30
2018-07-24T08:13:23.190Z,99946.01
2018-07-24T08:16:01.297Z,99948.84
2018-07-24T08:18:34.457Z,99946.30
2018-07-24T08:21:10.561Z,99948.85
2018-07-24T08:23:43.828Z,99948.11
2018-07-24T08:26:17.608Z,99945.02
2018-07-24T08:28:51.469Z,99940.63
2018-07-24T08:31:25.310Z,99940.67
2018-07-24T08:34:00.976Z,99940.27
2018-07-24T08:36:36.775Z,99939.81
2018-07-24T08:39:12.176Z,99940.94
2018-07-24T08:41:47.216Z,99943.16
2018-07-24T08:44:28.215Z,99942.83
2018-07-24T08:47:02.848Z,99937.80
2018-07-24T08:49:35.671Z,99937.33
2018-07-24T08:52:11.476Z,99937.09
2018-07-24T08:54:44.388Z,99931.58
2018-07-24T08:57:17.041Z,99930.16
2018-07-24T08:59:51.619Z,99929.53
2018-07-24T09:02:24.111Z,99936.05
2018-07-24T09:04:58.053Z,99931.13
2018-07-24T09:07:40.676Z,99929.41
2018-07-24T09:10:19.902Z,99931.76
2018-07-24T09:12:54.201Z,99932.87
2018-07-24T09:15:30.080Z,99928.76
2018-07-24T09:18:04.752Z,99923.52
2018-07-24T09:20:37.344Z,99922.53
2018-07-24T09:23:10.012Z,99922.64
2018-07-24T09:25:42.965Z,99917.71
2018-07-24T09:28:15.550Z,99918.88
2018-07-24T09:30:48.081Z,99923.04
2018-07-24T09:33:20.924Z,99921.48
2018-07-24T09:35:54.760Z,99917.35
2018-07-24T09:38:30.465Z,99918.87
2018-07-24T09:41:06.886Z,99922.03
2018-07-24T09:43:39.399Z,99921.00
2018-07-24T09:46:12.335Z,99922.27
2018-07-24T09:48:46.502Z,99918.69
2018-07-24T09:51:20.218Z,99915.23
2018-07-24T09:53:52.746Z,99914.56
2018-07-24T09:56:26.625Z,99912.73
2018-07-24T09:59:00.701Z,99906.30
2018-07-24T10:01:35.720Z,99910.45
2018-07-24T10:04:09.656Z,99903.86
2018-07-24T10:06:42.886Z,99904.69
2018-07-24T10:09:16.316Z,99898.17
2018-07-24T10:11:50.460Z,99908.77
2018-07-24T10:14:23.873Z,99900.67
2018-07-24T10:16:57.062Z,99897.48
2018-07-24T10:19:32.601Z,99890.44
2018-07-24T10:22:07.220Z,99888.20
2018-07-24T10:24:43.139Z,99881.75
2018-07-24T10:27:19.510Z,99875.14
2018-07-24T10:29:58.979Z,99874.65
2018-07-24T10:32:33.618Z,99868.41
2018-07-24T10:35:09.478Z,99872.30
2018-07-24T10:37:44.110Z,99864.64
2018-07-24T10:40:16.871Z,99852.93
2018-07-24T10:42:49.995Z,99858.50
2018-07-24T10:45:23.892Z,99854.19
2018-07-24T10:47:59.636Z,99851.17
2018-07-24T10:50:53.279Z,99854.08
2018-07-24T10:53:26.294Z,99848.91
2018-07-24T10:55:59.416Z,99852.89
2018-07-24T10:58:32.313Z,99849.36
2018-07-24T11:01:11.499Z,99846.13
2018-07-24T11:03:45.572Z,99843.14
2018-07-24T11:06:18.482Z,99843.20
2018-07-24T11:08:51.964Z,99842.73
2018-07-24T11:11:24.830Z,99840.45
2018-07-24T11:13:58.223Z,99840.29
2018-07-24T11:16:31.469Z,99837.56
2018-07-24T11:19:07.036Z,99832.77
2018-07-24T11:21:49.815Z,99831.81
2018-07-24T11:24:29.509Z,99830.01
2018-07-24T11:27:05.655Z,99827.73
2018-07-24T11:29:39.417Z,99826.14
2018-07-24T11:32:13.650Z,99824.09
2018-07-24T11:34:49.774Z,99830.55
2018-07-24T11:37:24.378Z,99816.48
2018-07-24T11:39:59.717Z,99821.75
2018-07-24T11:42:36.928Z,99819.17
2018-07-24T11:45:26.521Z,99815.23
2018-07-24T11:48:04.624Z,99813.69
2018-07-24T11:50:38.068Z,99810.45
2018-07-24T11:53:16.501Z,99810.53
2018-07-24T11:55:49.140Z,99816.16
2018-07-24T11:58:24.352Z,99811.69
2018-07-24T12:00:58.641Z,99809.47
2018-07-24T12:03:34.854Z,99810.61
2018-07-24T12:06:08.029Z,99804.80
2018-07-24T12:08:48.732Z,99803.53
2018-07-24T12:11:31.416Z,99796.42
2018-07-24T12:14:06.353Z,99800.06
2018-07-24T12:16:40.073Z,99802.34
2018-07-24T12:19:14.989Z,99795.57
2018-07-24T12:21:48.697Z,99794.88
2018-07-24T12:24:24.833Z,99794.69
2018-07-24T12:26:59.022Z,99783.62
2018-07-24T12:29:31.752Z,99786.39
2018-07-24T12:32:08.381Z,99792.81
2018-07-24T12:34:41.908Z,99788.79
2018-07-24T12:37:15.102Z,99788.26
2018-07-24T12:39:49.207Z,99784.89
2018-07-24T12:42:21.972Z,99790.15
2018-07-24T12:44:55.814Z,99789.70
2018-07-24T12:47:35.587Z,99789.83
2018-07-24T12:50:12.801Z,99778.77
2018-07-24T12:52:48.819Z,99779.17
2018-07-24T12:55:24.212Z,99773.02
2018-07-24T12:57:59.785Z,99764.73
2018-07-24T13:00:33.991Z,99758.45
2018-07-24T13:03:07.661Z,99754.53
2018-07-24T13:05:42.686Z,99757.27
2018-07-24T13:08:18.040Z,99756.63
2018-07-24T13:10:54.904Z,99757.47
2018-07-24T13:13:31.068Z,99755.24
2018-07-24T13:16:06.110Z,99752.08
2018-07-24T13:18:48.924Z,99755.66
2018-07-24T13:21:22.848Z,99743.05
2018-07-24T13:24:01.543Z,99751.59
2018-07-24T13:26:37.776Z,99742.54
2018-07-24T13:29:13.220Z,99748.23
2018-07-24T13:31:50.538Z,99744.13
2018-07-24T13:34:23.752Z,99748.14
2018-07-24T13:37:09.257Z,99740.52
2018-07-24T13:39:45.489Z,99741.18
2018-07-24T13:42:23.006Z,99739.34
2018-07-24T13:44:57.522Z,99734.09
2018-07-24T13:47:30.689Z,99734.83
2018-07-24T13:50:05.963Z,99732.70
2018-07-24T13:52:39.940Z,99724.18
2018-07-24T13:55:17.337Z,99725.66
2018-07-24T13:57:50.559Z,99728.05
2018-07-24T14:00:25.671Z,99720.50
2018-07-24T14:02:58.472Z,99722.39
2018-07-24T14:05:33.934Z,99723.12
2018-07-24T14:08:09.509Z,99725.42
2018-07-24T14:10:46.058Z,99722.28
2018-07-24T14:13:19.104Z,99719.27
2018-07-24T14:15:51.979Z,99713.04
2018-07-24T14:18:25.584Z,99708.31
2018-07-24T14:20:58.913Z,99713.73
2018-07-24T14:23:34.182Z,99709.89
2018-07-24T14:26:09.210Z,99708.02
2018-07-24T14:28:41.903Z,99702.69
2018-07-24T14:31:15.471Z,99708.74
2018-07-24T14:33:51.247Z,99697.69
2018-07-24T14:36:29.920Z,99699.45
2018-07-24T14:39:06.653Z,99691.48
2018-07-24T14:41:44.321Z,99686.94
2018-07-24T14:44:19.379Z,99689.59
2018-07-24T14:46:52.862Z,99685.09
2018-07-24T14:49:28.458Z,99687.47
2018-07-24T14:52:03.087Z,99685.24
2018-07-24T14:54:37.738Z,99688.53
2018-07-24T14:57:14.151Z,99690.05
2018-07-24T14:59:50.560Z,99690.67
2018-07-24T15:02:28.605Z,99682.88
2018-07-24T15:05:05.058Z,99681.09
2018-07-24T15:07:40.325Z,99679.32
2018-07-24T15:10:14.086Z,99678.78
2018-07-24T15:12:49.154Z,99684.78
2018-07-24T15:15:22.895Z,99683.44
2018-07-24T15:18:00.485Z,99681.20
2018-07-24T15:20:34.001Z,99679.32
2018-07-24T15:23:16.439Z,99676.52
2018-07-24T15:25:49.509Z,99675.59
2018-07-24T15:28:25.485Z,99679.47
2018-07-24T15:30:59.525Z,99667.98
2018-07-24T15:33:36.453Z,99670.30
2018-07-24T15:36:10.861Z,99666.25
2018-07-24T15:38:44.330Z,99665.86
2018-07-24T15:41:22.366Z,99665.52
2018-07-24T15:43:56.483Z,99662.17
2018-07-24T15:46:30.574Z,99658.81
2018-07-24T15:49:04.016Z,99654.38
2018-07-24T15:51:38.957Z,99658.09
2018-07-24T15:54:12.080Z,99656.46
2018-07-24T15:56:50.054Z,99652.84
2018-07-24T15:59:25.372Z,99649.47
2018-07-24T16:02:02.411Z,99653.00
2018-07-24T16:04:37.604Z,99651.66
2018-07-24T16:07:11.401Z,99650.98
2018-07-24T16:09:47.105Z,99649.17
2018-07-24T16:12:21.460Z,99653.27
2018-07-24T16:14:53.968Z,99649.61
2018-07-24T16:17:27.857Z,99647.18
2018-07-24T16:20:03.535Z,99651.86
2018-07-24T16:22:38.020Z,99648.41
2018-07-24T16:25:12.102Z,99647.73
2018-07-24T16:27:44.698Z,99645.38
2018-07-24T16:30:16.978Z,99643.29
2018-07-24T16:32:50.576Z,99637.70
2018-07-24T16:35:23.163Z,99644.52
2018-07-24T16:37:55.992Z,99640.42
2018-07-24T16:40:29.913Z,99638.13
2018-07-24T16:43:05.815Z,99633.99
2018-07-24T16:45:39.461Z,99639.76
2018-07-24T16:48:16.028Z,99640.24
2018-07-24T16:50:50.580Z,99637.66
2018-07-24T16:53:23.878Z,99642.74
2018-07-24T16:55:58.076Z,99637.89
2018-07-24T16:58:30.539Z,99636.59
2018-07-24T17:01:06.328Z,99630.36
2018-07-24T17:03:43.137Z,99626.97
2018-07-24T17:06:15.746Z,99626.07
2018-07-24T17:08:51.606Z,99630.09
2018-07-24T17:11:26.549Z,99627.05
2018-07-24T17:14:00.740Z,99631.95
2018-07-24T17:16:43.702Z,99627.94
2018-07-24T17:19:23.049Z,99628.23
2018-07-24T17:21:58.341Z,99625.94
2018-07-24T17:24:32.086Z,99627.24
2018-07-24T17:27:11.500Z,99626.58
2018-07-24T17:29:49.711Z,99628.42
2018-07-24T17:32:24.696Z,99627.34
2018-07-24T17:34:59.521Z,99629.10
2018-07-24T17:37:34.223Z,99630.58
2018-07-24T17:40:10.704Z,99637.84
2018-07-24T17:42:47.081Z,99632.91
2018-07-24T17:45:23.989Z,99635.09
2018-07-24T17:47:57.830Z,99635.74
2018-07-24T17:50:32.618Z,99634.09
2018-07-24T17:53:06.791Z,99636.19
2018-07-24T17:55:43.854Z,99642.77
2018-07-24T17:58:22.670Z,99646.64
2018-07-24T18:00:57.161Z,99646.62
2018-07-24T18:03:31.953Z,99644.84
2018-07-24T18:06:06.758Z,99644.42
2018-07-24T18:08:49.961Z,99645.67
2018-07-24T18:11:23.359Z,99646.64
2018-07-24T18:13:58.986Z,99651.78
2018-07-24T18:16:36.133Z,99648.11
2018-07-24T18:19:10.784Z,99651.42
2018-07-24T18:22:05.496Z,99653.40
2018-07-24T18:24:39.383Z,99649.86
2018-07-24T18:27:14.837Z,99651.42
2018-07-24T18:29:48.789Z,99653.36
2018-07-24T18:32:25.999Z,99652.20
2018-07-24T18:34:59.767Z,99656.52
2018-07-24T18:37:34.283Z,99661.05
2018-07-24T18:40:08.678Z,99665.22
2018-07-24T18:42:44.425Z,99670.61
2018-07-24T18:45:17.880Z,99670.83
2018-07-24T18:47:51.963Z,99670.64
2018-07-24T18:50:28.041Z,99671.05
2018-07-24T18:53:05.094Z,99668.83
2018-07-24T18:55:38.296Z,99669.80
2018-07-24T18:58:11.955Z,99670.91
2018-07-24T19:00:47.872Z,99666.13
2018-07-24T19:03:31.157Z,99667.40
2018-07-24T19:06:07.459Z,99669.09
2018-07-24T19:08:43.256Z,99676.21
2018-07-24T19:11:19.578Z,99674.03
2018-07-24T19:13:53.276Z,99675.02
2018-07-24T19:16:27.661Z,99676.65
2018-07-24T19:19:01.719Z,99673.63
2018-07-24T19:21:35.212Z,99681.63
2018-07-24T19:24:08.472Z,99685.32
2018-07-24T19:26:51.090Z,99679.84
2018-07-24T19:29:25.955Z,99683.73
2018-07-24T19:31:59.207Z,99688.55
2018-07-24T19:34:33.047Z,99690.93
2018-07-24T19:37:06.792Z,99690.97
2018-07-24T19:39:40.681Z,99693.22
2018-07-24T19:42:16.217Z,99695.67
2018-07-24T19:44:50.091Z,99699.94
2018-07-24T19:47:27.343Z,99703.55
2018-07-24T19:50:03.675Z,99708.39
2018-07-24T19:52:39.510Z,99709.05
2018-07-24T19:55:14.223Z,99710.78
2018-07-24T19:57:48.343Z,99713.92
2018-07-24T20:00:23.420Z,99713.80
2018-07-24T20:02:56.923Z,99716.92
2018-07-24T20:05:31.732Z,99716.02
2018-07-24T20:08:14.404Z,99717.50
2018-07-24T20:10:47.416Z,99723.91
2018-07-24T20:13:23.461Z,99728.43
2018-07-24T20:15:59.009Z,99723.63
2018-07-24T20:18:33.181Z,99723.05
2018-07-24T20:21:07.389Z,99728.99
2018-07-24T20:23:40.817Z,99724.47
2018-07-24T20:26:16.501Z,99728.78
2018-07-24T20:28:55.477Z,99733.66
2018-07-24T20:31:29.588Z,99728.34
2018-07-24T20:34:05.756Z,99732.82
2018-07-24T20:36:40.483Z,99734.77
2018-07-24T20:39:16.631Z,99729.80
2018-07-24T20:41:53.955Z,99732.94
2018-07-24T20:44:30.328Z,99733.28
2018-07-24T20:47:03.704Z,99728.27
2018-07-24T20:49:38.022Z,99733.95
2018-07-24T20:52:11.085Z,99731.66
2018-07-24T20:54:47.935Z,99728.52
2018-07-24T20:57:21.865Z,99728.81
2018-07-24T20:59:55.353Z,99730.19
2018-07-24T21:02:29.101Z,99735.05
2018-07-24T21:05:02.894Z,99732.84
2018-07-24T21:07:39.960Z,99736.80
2018-07-24T21:10:18.068Z,99737.17
2018-07-24T21:12:53.046Z,99735.22
2018-07-24T21:15:32.080Z,99738.62
2018-07-24T21:18:06.259Z,99731.56
2018-07-24T21:20:39.861Z,99729.98
2018-07-24T21:23:12.436Z,99735.23
2018-07-24T21:25:47.084Z,99737.11
2018-07-24T21:28:24.162Z,99738.77
2018-07-24T21:30:56.664Z,99738.00
2018-07-24T21:33:31.108Z,99741.70
2018-07-24T21:36:07.065Z,99735.38
2018-07-24T21:38:41.277Z,99739.16
2018-07-24T21:41:19.461Z,99738.64
2018-07-24T21:43:52.844Z,99739.97
2018-07-24T21:46:29.658Z,99742.42
2018-07-24T21:49:06.344Z,99741.25
2018-07-24T21:51:40.514Z,99735.91
2018-07-24T21:54:13.591Z,99737.46
2018-07-24T21:56:47.018Z,99737.77
2018-07-24T21:59:23.649Z,99739.77
2018-07-24T22:01:58.325Z,99742.48
2018-07-24T22:04:32.579Z,99743.08
2018-07-24T22:07:08.345Z,99736.61
2018-07-24T22:09:41.597Z,99742.12
2018-07-24T22:12:17.793Z,99744.06
2018-07-24T22:14:52.330Z,99747.19
2018-07-24T22:17:26.628Z,99759.77
2018-07-24T22:20:00.618Z,99761.42
2018-07-24T22:22:36.455Z,99766.56
2018-07-24T22:25:10.583Z,99767.35
2018-07-24T22:27:45.525Z,99765.07
2018-07-24T22:30:22.632Z,99775.32
2018-07-24T22:32:59.975Z,99773.90
2018-07-24T22:35:32.836Z,99768.11
2018-07-24T22:38:16.442Z,99768.28
2018-07-24T22:40:52.837Z,99767.52
2018-07-24T22:43:33.797Z,99773.87
2018-07-24T22:46:16.113Z,99770.31
2018-07-24T22:48:48.657Z,99767.45
2018-07-24T22:51:25.312Z,99767.38
2018-07-24T22:54:08.888Z,99771.55
2018-07-24T22:56:42.756Z,99772.06
2018-07-24T22:59:17.298Z,99769.88
2018-07-24T23:01:49.797Z,99767.88
2018-07-24T23:04:25.566Z,99774.82
2018-07-24T23:06:59.795Z,99775.73
2018-07-24T23:09:34.450Z,99782.53
2018-07-24T23:12:12.974Z,99783.64
2018-07-24T23:14:46.981Z,99777.84
2018-07-24T23:17:21.487Z,99778.39
2018-07-24T23:19:53.837Z,99779.13
2018-07-24T23:22:28.936Z,99779.18
2018-07-24T23:25:03.356Z,99781.19
2018-07-24T23:27:38.044Z,99781.73
2018-07-24T23:30:12.790Z,99778.33
2018-07-24T23:32:45.553Z,99773.85
2018-07-24T23:35:18.951Z,99774.45
2018-07-24T23:37:52.816Z,99774.23
2018-07-24T23:40:28.819Z,99770.46
2018-07-24T23:43:02.666Z,99774.95
2018-07-24T23:45:37.336Z,99771.36
2018-07-24T23:48:10.496Z,99768.44
2018-07-24T23:50:45.205Z,99768.39
2018-07-24T23:53:17.819Z,99770.08
2018-07-24T23:55:55.957Z,99773.22
2018-07-24T23:58:30.033Z,99773.92
